Latest Coastal Weather Observations for Gannett Cay

IDQ60701

Issued at 12:42 am EST Tuesday 28 June 2016 (issued every 10 minutes, with the page automatically refreshed every 10 minutes)

About coastal observations | Map of coastal stations | Coastal observations for QLD | Marine services | Other Formats
Station Details ID: 200831 Name: GANNET CAY Lat: -21.98 Lon: 152.47 Height: 2.3 m
Data from the previous 72 hours. | See also: Recent months for locations in Queensland
Date/Time
EST
Temp
°C
Wind Pressure Rain since
9am
mm
Weather Cloud Vis
km
Sea
Height
m
Swell
Dir  Spd
kts
Gust
kts
hPa Trend Height
m
Period
s
Dir
28/12:30am 21.1 S 22 25 1017.2 - - - - - - - - -
28/12:29am 21.3 S 21 24 1017.3 - - - - - - - - -
28/12:00am 21.5 S 21 23 1016.9 - - - - - - - - -
 
Date/Time
EST
Temp
°C
Wind Pressure Rain since
9am
mm
Weather Cloud Vis
km
Sea
Height
m
Swell
Dir  Spd
kts
Gust
kts
hPa Trend Height
m
Period
s
Dir
27/11:30pm 22.0 S 19 22 1016.9 - - - - - - - - -
27/11:29pm 22.1 S 19 - 1017.0 - - - - - - - - -
27/11:00pm 22.2 S 20 22 1016.8 - - - - - - - - -
27/10:30pm 22.4 S 18 22 1016.9 - - - - - - - - -
27/10:29pm 22.4 S 18 - 1017.0 - - - - - - - - -
27/10:00pm 22.3 SSW 18 21 1017.0 - - - - - - - - -
27/09:30pm 22.6 SSW 18 21 1016.9 - - - - - - - - -
27/09:29pm 22.4 SSW 19 - 1017.0 - - - - - - - - -
27/09:00pm 22.5 SSW 19 21 1016.8 - - - - - - - - -
27/08:30pm 22.8 SSW 18 21 1016.7 - - - - - - - - -
27/08:29pm 22.7 SSW 18 - 1016.8 - - - - - - - - -
27/08:00pm 22.8 SW 17 20 1016.7 - - - - - - - - -
27/07:30pm 22.8 SSW 15 17 1016.2 - - - - - - - - -
27/07:29pm 22.7 SSW 15 - 1016.3 - - - - - - - - -
27/07:00pm 22.7 SSW 16 18 1016.1 - - - - - - - - -
27/06:30pm 22.4 SW 16 20 1015.8 - - - - - - - - -
27/06:29pm 22.6 SW 15 - 1015.8 - - - - - - - - -
27/06:00pm 23.1 WNW 16 19 1015.3 - - - - - - - - -
27/05:30pm 24.0 WNW 17 21 1014.9 - - - - - - - - -
27/05:29pm 24.0 WNW 17 - 1015.0 - - - - - - - - -
27/05:00pm 24.3 WNW 14 17 1014.6 - - - - - - - - -
27/04:30pm 24.3 WNW 14 16 1014.2 - - - - - - - - -
27/04:29pm 24.3 WNW 14 - 1014.3 - - - - - - - - -
27/04:00pm 24.5 WNW 13 14 1014.2 - - - - - - - - -
27/03:30pm 24.3 WNW 12 14 1014.0 - - - - - - - - -
27/03:29pm 24.3 WNW 13 - 1014.1 - - - - - - - - -
27/03:00pm 24.2 NW 12 14 1013.9 - - - - - - - - -
27/02:30pm 24.3 NW 11 13 1014.0 - - - - - - - - -
27/02:29pm 24.3 NW 11 - 1014.1 - - - - - - - - -
27/02:00pm 24.4 NW 12 13 1014.0 - - - - - - - - -
27/01:30pm 24.4 NNW 10 11 1014.1 - - - - - - - - -
27/01:29pm 24.4 NNW 10 - 1014.2 - - - - - - - - -
27/01:00pm 24.2 N 12 13 1014.0 - - - - - - - - -
27/12:30pm 24.3 NNW 11 13 1014.5 - - - - - - - - -
27/12:29pm 24.2 NNW 11 - 1014.7 - - - - - - - - -
27/12:00pm 24.2 N 12 14 1014.8 - - - - - - - - -
27/11:30am 24.1 N 10 12 1015.3 - - - - - - - - -
27/11:29am 24.1 N 10 - 1015.5 - - - - - - - - -
27/11:00am 24.1 N 10 11 1015.9 - - - - - - - - -
27/10:30am 24.2 N 10 11 1016.2 - - - - - - - - -
27/10:29am 24.2 N 10 - 1016.3 - - - - - - - - -
27/10:00am 24.0 N 9 10 1016.6 - - - - - - - - -
27/09:30am 24.0 N 9 10 1016.8 - - - - - - - - -
27/09:29am 24.0 N 9 - 1016.9 - - - - - - - - -
27/09:00am 23.8 N 10 12 1016.5 - - - - - - - - -
27/08:30am 23.7 N 11 12 1016.2 - - - - - - - - -
27/08:29am 23.9 N 11 - 1016.3 - - - - - - - - -
27/08:00am 23.7 N 12 15 1016.1 - - - - - - - - -
27/07:30am 23.7 N 11 13 1016.1 - - - - - - - - -
27/07:29am 23.6 N 11 - 1016.2 - - - - - - - - -
27/07:00am 23.4 N 11 13 1016.0 - - - - - - - - -
27/06:30am 23.1 N 11 13 1015.8 - - - - - - - - -
27/06:29am 23.3 N 11 - 1015.9 - - - - - - - - -
27/06:00am 23.0 N 12 14 1015.4 - - - - - - - - -
27/05:30am 23.1 N 8 9 1015.4 - - - - - - - - -
27/05:29am 23.1 N 8 - 1015.5 - - - - - - - - -
27/05:00am 23.0 N 8 9 1015.2 - - - - - - - - -
27/04:30am 23.0 N 10 11 1015.0 - - - - - - - - -
27/04:29am 23.0 N 10 - 1015.1 - - - - - - - - -
27/04:00am 23.0 N 10 13 1014.8 - - - - - - - - -
27/03:30am 22.9 NNE 11 14 1014.7 - - - - - - - - -
27/03:29am 22.8 NNE 11 - 1014.9 - - - - - - - - -
27/03:00am 22.8 NNE 10 11 1015.2 - - - - - - - - -
27/02:30am 22.8 NNE 9 11 1015.4 - - - - - - - - -
27/02:29am 22.8 NNE 9 - 1015.5 - - - - - - - - -
27/02:00am 22.7 NNE 8 9 1015.5 - - - - - - - - -
27/01:30am 22.8 NNE 8 10 1015.5 - - - - - - - - -
27/01:29am 22.8 NNE 8 - 1015.6 - - - - - - - - -
27/01:00am 22.9 NNE 9 10 1015.7 - - - - - - - - -
27/12:30am 22.7 NNE 6 7 1016.1 - - - - - - - - -
27/12:29am 22.7 NNE 6 - 1016.2 - - - - - - - - -
27/12:00am 22.7 NE 6 7 1016.2 - - - - - - - - -
 
Date/Time
EST
Temp
°C
Wind Pressure Rain since
9am
mm
Weather Cloud Vis
km
Sea
Height
m
Swell
Dir  Spd
kts
Gust
kts
hPa Trend Height
m
Period
s
Dir
26/11:30pm 22.7 NE 6 7 1016.3 - - - - - - - - -
26/11:29pm 22.7 NE 6 - 1016.4 - - - - - - - - -
26/11:00pm 22.6 NE 6 8 1016.4 - - - - - - - - -
26/10:30pm 22.7 NE 8 9 1016.5 - - - - - - - - -
26/10:29pm 22.7 NE 8 - 1016.6 - - - - - - - - -
26/10:00pm 22.8 NE 8 10 1016.6 - - - - - - - - -
26/09:30pm 22.6 NE 8 10 1016.8 - - - - - - - - -
26/09:29pm 22.6 ENE 8 - 1016.9 - - - - - - - - -
26/09:00pm 22.7 NE 10 12 1016.6 - - - - - - - - -
26/08:30pm 22.6 NE 11 13 1016.4 - - - - - - - - -
26/08:29pm 22.7 NE 11 - 1016.5 - - - - - - - - -
26/08:00pm 22.5 NE 12 15 1016.1 - - - - - - - - -
26/07:30pm 22.5 NE 11 14 1016.1 - - - - - - - - -
26/07:29pm 22.5 NE 11 - 1016.2 - - - - - - - - -
26/07:00pm 22.3 ENE 10 12 1016.1 - - - - - - - - -
26/06:30pm 22.2 ENE 9 11 1015.9 - - - - - - - - -
26/06:29pm 22.2 ENE 9 - 1016.0 - - - - - - - - -
26/06:00pm 22.1 ENE 9 11 1015.7 - - - - - - - - -
26/05:30pm 22.1 ENE 9 11 1015.7 - - - - - - - - -
26/05:29pm 22.1 ENE 9 - 1015.8 - - - - - - - - -
26/05:00pm 22.2 ENE 9 11 1015.8 - - - - - - - - -
26/04:30pm 22.1 ENE 10 13 1015.6 - - - - - - - - -
26/04:29pm 22.2 ENE 10 - 1015.6 - - - - - - - - -
26/04:00pm 22.1 ENE 11 15 1015.4 - - - - - - - - -
26/03:30pm 22.3 ENE 10 12 1015.3 - - - - - - - - -
26/03:29pm 22.3 ENE 10 - 1015.4 - - - - - - - - -
26/03:00pm 22.2 E 9 11 1015.2 - - - - - - - - -
26/02:30pm 22.3 E 10 13 1015.2 - - - - - - - - -
26/02:29pm 22.4 E 10 - 1015.3 - - - - - - - - -
26/02:00pm 22.0 ESE 11 14 1015.7 - - - - - - - - -
26/01:30pm 22.3 ESE 10 13 1016.1 - - - - - - - - -
26/01:29pm 22.3 ESE 10 - 1016.2 - - - - - - - - -
26/01:00pm 22.1 SE 9 11 1016.4 - - - - - - - - -
26/12:30pm 22.1 SE 10 13 1016.8 - - - - - - - - -
26/12:29pm 22.1 SE 10 - 1016.9 - - - - - - - - -
26/12:00pm 21.9 ESE 9 12 1017.3 - - - - - - - - -
26/11:30am 22.0 ESE 9 11 1017.6 - - - - - - - - -
26/11:29am 22.1 ESE 9 - 1017.7 - - - - - - - - -
26/11:00am 21.7 ESE 11 14 1017.9 - - - - - - - - -
26/10:30am 21.8 E 9 11 1018.2 - - - - - - - - -
26/10:29am 21.8 E 8 - 1018.3 - - - - - - - - -
26/10:00am 21.4 ESE 11 14 1018.4 - - - - - - - - -
26/09:30am 21.3 SE 11 15 1018.7 - - - - - - - - -
26/09:29am 21.3 SE 11 - 1018.8 - - - - - - - - -
26/09:00am 21.1 ESE 12 16 1018.8 - - - - - - - - -
26/08:30am 20.9 ESE 11 14 1018.7 - - - - - - - - -
26/08:29am 20.9 SE 11 - 1018.8 - - - - - - - - -
26/08:00am 20.6 ESE 12 15 1018.3 - - - - - - - - -
26/07:30am 20.6 ESE 11 14 1017.9 - - - - - - - - -
26/07:29am 20.6 ESE 11 - 1018.0 - - - - - - - - -
26/07:00am 20.2 ESE 10 13 1017.6 - - - - - - - - -
26/06:30am 20.1 SE 13 16 1017.4 - - - - - - - - -
26/06:29am 20.1 SE 13 - 1017.5 - - - - - - - - -
26/06:00am 20.1 SE 12 15 1017.2 - - - - - - - - -
26/05:30am 20.0 SE 14 17 1016.9 - - - - - - - - -
26/05:29am 19.9 SE 14 - 1017.0 - - - - - - - - -
26/05:00am 20.0 SE 11 15 1016.9 - - - - - - - - -
26/04:30am 20.1 ESE 12 16 1016.5 - - - - - - - - -
26/04:29am 20.2 ESE 12 - 1016.6 - - - - - - - - -
26/04:00am 20.0 ESE 14 19 1016.2 - - - - - - - - -
26/03:30am 19.8 SE 14 17 1015.9 - - - - - - - - -
26/03:29am 19.9 SE 14 - 1016.0 - - - - - - - - -
26/03:00am 19.7 ESE 14 19 1015.9 - - - - - - - - -
26/02:30am 19.7 ESE 15 20 1016.3 - - - - - - - - -
26/02:29am 19.6 ESE 14 - 1016.4 - - - - - - - - -
26/02:00am 19.7 SE 16 19 1016.6 - - - - - - - - -
26/01:30am 19.7 SE 14 18 1017.2 - - - - - - - - -
26/01:29am 19.6 SE 14 - 1017.2 - - - - - - - - -
26/01:00am 19.7 SE 15 19 1017.2 - - - - - - - - -
26/12:30am 19.4 SE 15 19 1017.6 - - - - - - - - -
26/12:29am 19.5 SE 15 - 1017.7 - - - - - - - - -
26/12:00am 19.3 SE 15 19 1018.0 - - - - - - - - -
 
Date/Time
EST
Temp
°C
Wind Pressure Rain since
9am
mm
Weather Cloud Vis
km
Sea
Height
m
Swell
Dir  Spd
kts
Gust
kts
hPa Trend Height
m
Period
s
Dir
25/11:30pm 19.5 SE 14 19 1018.0 - - - - - - - - -
25/11:29pm 19.3 SE 14 - 1018.1 - - - - - - - - -
25/11:00pm 19.1 SE 15 18 1018.2 - - - - - - - - -
25/10:30pm 19.2 SE 14 18 1018.2 - - - - - - - - -
25/10:29pm 19.3 SE 14 - 1018.3 - - - - - - - - -
25/10:00pm 19.0 SSE 15 18 1018.2 - - - - - - - - -
25/09:30pm 18.9 SSE 14 17 1018.3 - - - - - - - - -
25/09:29pm 19.1 SSE 14 - 1018.4 - - - - - - - - -
25/09:00pm 19.1 SE 14 17 1018.1 - - - - - - - - -
25/08:30pm 18.8 SSE 16 21 1017.9 - - - - - - - - -
25/08:29pm 19.0 SSE 16 - 1018.0 - - - - - - - - -
25/08:00pm 18.9 SSE 15 17 1017.7 - - - - - - - - -
25/07:30pm 18.8 SSE 17 21 1017.3 - - - - - - - - -
25/07:29pm 18.9 SSE 17 - 1017.4 - - - - - - - - -
25/07:00pm 19.1 SSE 17 20 1017.4 - - - - - - - - -
25/06:30pm 19.0 SSE 19 23 1017.3 - - - - - - - - -
25/06:29pm 18.9 SSE 19 - 1017.4 - - - - - - - - -
25/06:00pm 18.9 SSE 19 22 1016.8 - - - - - - - - -
25/05:30pm 18.9 SSE 18 21 1016.5 - - - - - - - - -
25/05:29pm 19.0 SSE 18 - 1016.6 - - - - - - - - -
25/05:00pm 19.1 SSE 17 20 1016.4 - - - - - - - - -
25/04:30pm 19.4 SSE 16 21 1016.1 - - - - - - - - -
25/04:29pm 19.2 SSE 17 - 1016.2 - - - - - - - - -
25/04:00pm 19.4 S 16 20 1015.9 - - - - - - - - -
25/03:30pm 19.4 S 17 19 1015.8 - - - - - - - - -
25/03:29pm 19.1 S 17 - 1015.9 - - - - - - - - -
25/03:00pm 19.6 S 17 20 1016.0 - - - - - - - - -
25/02:30pm 19.4 S 18 21 1016.1 - - - - - - - - -
25/02:29pm 19.3 S 18 - 1016.2 - - - - - - - - -
25/02:00pm 19.1 S 20 23 1016.1 - - - - - - - - -
25/01:30pm 19.3 S 22 25 1016.2 - - - - - - - - -
25/01:29pm 19.3 S 21 - 1016.3 - - - - - - - - -
25/01:00pm 19.7 S 21 24 1016.5 - - - - - - - - -
25/12:30pm 19.7 S 21 24 1016.8 - - - - - - - - -
25/12:29pm 19.7 S 21 - 1016.9 - - - - - - - - -
25/12:00pm 19.9 S 21 25 1017.3 - - - - - - - - -
25/11:30am 20.0 S 22 25 1017.4 - - - - - - - - -
25/11:29am 20.0 S 22 - 1017.6 - - - - - - - - -
25/11:00am 19.8 S 23 28 1017.7 - - - - - - - - -
25/10:30am 20.0 S 23 28 1017.8 - - - - - - - - -
25/10:29am 20.1 S 23 - 1018.0 - - - - - - - - -
25/10:00am 20.2 S 23 27 1018.0 - - - - - - - - -
25/09:30am 20.2 S 24 27 1017.8 - - - - - - - - -
25/09:29am 20.3 S 24 - 1017.9 - - - - - - - - -
25/09:00am 20.5 S 24 29 1017.6 - - - - - - - - -
25/08:30am 20.6 S 24 27 1017.1 - - - - - - - - -
25/08:29am 20.7 S 24 - 1017.2 - - - - - - - - -
25/08:00am 20.9 S 24 28 1016.9 - - - - - - - - -
25/07:30am 20.9 S 25 28 1016.4 - - - - - - - - -
25/07:29am 20.9 S 25 - 1016.5 - - - - - - - - -
25/07:00am 21.4 S 24 28 1016.1 - - - - - - - - -
25/06:30am 21.7 S 24 28 1015.6 - - - - - - - - -
25/06:29am 21.6 S 25 - 1015.7 - - - - - - - - -
25/06:00am 22.1 S 25 28 1015.3 - - - - - - - - -
25/05:30am 22.4 S 24 28 1014.8 - - - - - - - - -
25/05:29am 22.4 S 24 - 1014.9 - - - - - - - - -
25/05:00am 22.9 S 24 28 1014.5 - - - - - - - - -
25/04:48am 23.3 S 19 28 1014.3 - - - - - - - - -
25/04:30am 24.4 S 16 17 1014.2 - - - - - - - - -
25/04:29am 24.4 S 15 - 1014.3 - - - - - - - - -
25/04:00am 24.4 S 15 17 1014.0 - - - - - - - - -
25/03:30am 24.5 S 16 17 1013.9 - - - - - - - - -
25/03:29am 24.5 S 16 - 1014.0 - - - - - - - - -
25/03:00am 24.4 S 15 17 1013.9 - - - - - - - - -
25/02:30am 24.6 S 16 19 1013.9 - - - - - - - - -
25/02:29am 24.6 S 16 - 1014.0 - - - - - - - - -
25/02:00am 24.6 S 16 18 1014.0 - - - - - - - - -
25/01:30am 24.5 SSW 14 16 1014.3 - - - - - - - - -
25/01:29am 24.4 SSW 14 - 1014.4 - - - - - - - - -
25/01:00am 24.4 SSW 13 16 1014.5 - - - - - - - - -

Other Formats:

Comma delimited format used in spreadsheet applications
http://www.bom.gov.au/fwo/IDQ60701/IDQ60701.94379.axf

JavaScript Object Notation format (JSON) in row-major order
http://www.bom.gov.au/fwo/IDQ60701/IDQ60701.94379.json